Time;durP1;ratioP1;P1;durP2;ratioP2;P2;SDS_P1;SDS_P2;PMS_P1;PMS_P2;Temp;Humidity;BMP_temperature;BMP_pressure;BME280_temperature;BME280_humidity;BME280_pressure;Samples;Min_cycle;Max_cycle;Signal;HPM_P1;HPM_P2
2021/09/14 00:00:05;;;;;;;11.70;6.43;;;;;;;19.93;70.66;100355.69;4992489;28;20118;-88
2021/09/14 00:02:30;;;;;;;11.88;6.25;;;;;;;19.92;70.54;100353.19;4992331;28;20113;-88
2021/09/14 00:04:56;;;;;;;11.65;6.57;;;;;;;19.70;70.68;100346.66;4994440;28;20142;-88
2021/09/14 00:07:21;;;;;;;16.08;6.55;;;;;;;19.50;70.92;100338.13;5011932;28;20021;-88
2021/09/14 00:09:46;;;;;;;12.57;6.25;;;;;;;19.73;70.20;100349.03;5012111;28;20026;-88
2021/09/14 00:12:12;;;;;;;14.07;6.82;;;;;;;19.74;70.31;100340.03;5011893;28;20491;-88
2021/09/14 00:14:37;;;;;;;12.90;6.65;;;;;;;19.83;69.16;100341.72;5012029;28;20435;-89
2021/09/14 00:17:02;;;;;;;10.52;6.28;;;;;;;19.90;69.72;100331.19;5010458;28;20120;-88
2021/09/14 00:19:28;;;;;;;12.07;7.07;;;;;;;19.79;69.20;100321.72;5011927;28;20109;-88
2021/09/14 00:21:53;;;;;;;13.07;7.72;;;;;;;19.61;70.78;100319.19;5011810;28;20030;-88
2021/09/14 00:24:18;;;;;;;11.98;6.75;;;;;;;19.72;70.46;100321.53;5011718;28;20530;-89
2021/09/14 00:26:44;;;;;;;13.63;7.75;;;;;;;19.70;70.24;100320.84;5011783;28;20050;-88
2021/09/14 00:29:09;;;;;;;14.07;7.70;;;;;;;19.83;69.93;100311.53;5007889;28;20045;-89
2021/09/14 00:31:34;;;;;;;11.15;6.50;;;;;;;19.71;70.54;100311.03;4992005;28;20027;-88
2021/09/14 00:34:00;;;;;;;14.05;7.45;;;;;;;19.70;70.38;100306.69;4990765;28;20035;-89
2021/09/14 00:36:25;;;;;;;15.95;7.50;;;;;;;19.65;70.27;100307.22;4991871;28;20077;-89
2021/09/14 00:38:51;;;;;;;15.23;7.90;;;;;;;19.51;70.98;100310.50;4992077;28;20077;-89
2021/09/14 00:41:16;;;;;;;17.48;7.28;;;;;;;19.66;70.53;100303.53;4992411;28;20030;-89
2021/09/14 00:43:41;;;;;;;12.45;7.22;;;;;;;19.62;70.01;100312.84;4992348;28;20038;-89
2021/09/14 00:46:07;;;;;;;11.88;7.65;;;;;;;19.37;71.09;100304.84;4991977;28;20061;-88
2021/09/14 00:48:33;;;;;;;13.43;7.47;;;;;;;19.61;70.14;100303.22;4992047;28;20030;-88
2021/09/14 00:50:58;;;;;;;13.93;7.95;;;;;;;19.50;70.35;100293.69;4990851;28;20026;-89
2021/09/14 00:53:26;;;;;;;17.17;8.90;;;;;;;19.59;70.61;100295.38;4992006;28;20030;-89
2021/09/14 00:55:52;;;;;;;14.57;7.63;;;;;;;19.55;70.33;100294.03;5000698;28;20396;-89
2021/09/14 00:58:18;;;;;;;14.43;8.98;;;;;;;19.62;70.05;100286.22;5011709;28;20092;-89
2021/09/14 01:00:43;;;;;;;14.25;8.23;;;;;;;19.62;70.79;100280.88;5015347;28;20511;-89
2021/09/14 01:03:09;;;;;;;16.58;8.70;;;;;;;19.40;70.94;100275.22;5015094;28;20113;-88
2021/09/14 01:05:35;;;;;;;15.70;8.93;;;;;;;19.44;70.87;100278.38;5015046;28;20030;-89
2021/09/14 01:08:01;;;;;;;16.38;9.15;;;;;;;19.47;70.26;100263.91;5014930;28;20032;-88
2021/09/14 01:10:28;;;;;;;15.95;8.80;;;;;;;19.56;70.12;100268.25;5014839;28;20092;-89
2021/09/14 01:12:53;;;;;;;18.42;9.07;;;;;;;19.64;69.55;100273.56;5014634;28;20026;-89
2021/09/14 01:15:18;;;;;;;19.67;10.05;;;;;;;19.68;70.00;100272.22;5014837;28;20041;-89
2021/09/14 01:17:44;;;;;;;23.35;11.50;;;;;;;19.54;70.27;100270.25;5015162;28;20113;-88
2021/09/14 01:20:10;;;;;;;15.55;9.98;;;;;;;19.46;70.41;100267.56;5014854;28;20546;-88
2021/09/14 01:22:35;;;;;;;20.98;10.50;;;;;;;19.65;69.77;100274.38;5014578;28;20034;-89
2021/09/14 01:25:14;;;;;;;16.38;10.32;;;;;;;19.39;70.51;100272.72;5012287;28;20026;-88
2021/09/14 01:27:39;;;;;;;16.13;10.52;;;;;;;19.39;70.62;100262.06;4994813;28;20027;-89
2021/09/14 01:30:18;;;;;;;26.05;10.20;;;;;;;19.49;69.95;100253.91;4994946;28;20055;-88
2021/09/14 01:32:48;;;;;;;16.05;10.02;;;;;;;19.54;69.99;100254.25;4994918;28;20030;-89
2021/09/14 01:35:19;;;;;;;24.40;11.30;;;;;;;19.22;70.90;100253.25;4994591;28;20022;-88
2021/09/14 01:37:45;;;;;;;26.67;12.07;;;;;;;18.86;71.70;100242.84;4994877;28;20022;-88
2021/09/14 01:40:10;;;;;;;14.90;10.43;;;;;;;19.06;71.83;100242.56;4994697;28;20030;-88
2021/09/14 01:42:37;;;;;;;18.98;10.80;;;;;;;18.88;71.99;100238.22;4994803;28;20027;-88
2021/09/14 01:45:04;;;;;;;19.15;10.40;;;;;;;19.11;71.75;100234.91;4994637;28;20030;-89
2021/09/14 01:47:29;;;;;;;21.60;10.35;;;;;;;18.99;71.95;100221.09;4994512;28;20057;-89
2021/09/14 01:49:54;;;;;;;18.25;10.52;;;;;;;19.05;71.69;100222.28;4994523;28;20023;-89
2021/09/14 01:52:20;;;;;;;19.27;9.93;;;;;;;19.05;72.10;100225.75;4994499;28;20038;-89
2021/09/14 01:54:47;;;;;;;17.80;10.13;;;;;;;19.06;70.90;100227.44;4996498;28;20029;-89
2021/09/14 01:57:12;;;;;;;19.17;10.68;;;;;;;19.17;71.27;100229.78;5013794;28;20538;-88
2021/09/14 01:59:39;;;;;;;20.25;10.13;;;;;;;19.19;71.48;100232.25;5013832;28;20030;-89
2021/09/14 02:02:27;;;;;;;19.90;10.63;;;;;;;19.10;71.83;100219.97;5013843;28;20380;-89
2021/09/14 02:07:38;;;;;;;21.20;10.55;;;;;;;19.17;71.29;100231.59;5014115;28;20450;-89
2021/09/14 02:24:08;;;;;;;20.10;10.77;;;;;;;19.03;72.71;100203.81;4974765;28;20045;-89
2021/09/14 02:40:47;;;;;;;15.82;9.50;;;;;;;19.19;71.94;100197.66;4974311;28;20038;-89
2021/09/14 02:59:35;;;;;;;17.88;8.88;;;;;;;18.81;73.40;100152.06;4974255;28;20027;-89
2021/09/14 03:02:02;;;;;;;18.88;9.90;;;;;;;18.68;74.17;100149.88;4973707;28;20035;-88
2021/09/14 03:04:28;;;;;;;18.88;9.70;;;;;;;18.69;74.89;100161.31;4973682;28;20049;-89
2021/09/14 03:06:54;;;;;;;17.30;9.38;;;;;;;18.80;74.37;100164.53;4983320;28;20030;-89
2021/09/14 03:09:19;;;;;;;16.25;9.80;;;;;;;18.71;74.23;100157.50;4992929;28;20129;-89
2021/09/14 03:11:45;;;;;;;17.48;9.90;;;;;;;18.67;74.90;100153.50;4992886;28;20033;-89
2021/09/14 03:14:10;;;;;;;17.77;9.90;;;;;;;18.82;74.03;100148.44;4993075;28;20125;-89
2021/09/14 03:16:36;;;;;;;19.50;10.55;;;;;;;18.83;73.93;100158.06;4991557;28;20042;-89
2021/09/14 03:19:01;;;;;;;14.73;9.63;;;;;;;18.95;73.81;100156.72;4992946;28;20036;-89
2021/09/14 03:21:27;;;;;;;21.02;10.43;;;;;;;18.87;73.86;100163.88;4992280;28;20470;-89
2021/09/14 03:23:52;;;;;;;18.38;10.35;;;;;;;18.93;73.67;100155.25;4993309;28;20026;-89
2021/09/14 03:26:18;;;;;;;14.05;9.18;;;;;;;18.76;74.13;100162.31;4992692;28;20126;-89
2021/09/14 03:28:43;;;;;;;17.05;9.30;;;;;;;19.04;73.32;100165.56;4992634;28;20587;-89
2021/09/14 03:31:08;;;;;;;17.13;10.10;;;;;;;18.85;74.08;100161.38;4992745;28;20022;-89
2021/09/14 03:33:34;;;;;;;18.77;10.30;;;;;;;19.05;73.52;100150.44;4992539;28;20556;-89
2021/09/14 03:35:59;;;;;;;23.92;9.75;;;;;;;18.98;73.52;100151.09;4992138;28;20554;-89
2021/09/14 03:38:25;;;;;;;15.95;10.02;;;;;;;18.97;73.92;100144.09;4991117;28;20041;-89
2021/09/14 03:40:50;;;;;;;19.25;11.93;;;;;;;18.72;75.02;100145.03;4992552;28;20018;-89
2021/09/14 03:43:17;;;;;;;20.30;10.13;;;;;;;18.78;74.43;100139.06;4992411;28;20029;-89
2021/09/14 03:45:45;;;;;;;16.10;9.82;;;;;;;18.87;74.18;100140.75;4993261;28;20050;-88
2021/09/14 03:48:11;;;;;;;17.98;10.63;;;;;;;18.88;73.58;100141.59;4991123;28;20472;-89
2021/09/14 03:50:36;;;;;;;14.48;9.90;;;;;;;19.07;72.67;100138.63;4992308;28;20026;-89
2021/09/14 03:53:02;;;;;;;17.77;10.52;;;;;;;18.90;73.43;100143.09;4991117;28;20084;-89
2021/09/14 03:55:28;;;;;;;17.30;9.82;;;;;;;19.06;72.75;100144.13;4992300;28;20109;-90
2021/09/14 03:57:53;;;;;;;18.90;10.05;;;;;;;19.11;72.31;100152.41;4992558;28;20465;-90
2021/09/14 04:00:19;;;;;;;19.45;10.25;;;;;;;19.09;72.51;100151.75;4993453;28;20042;-90
2021/09/14 04:02:50;;;;;;;13.55;9.63;;;;;;;19.13;72.49;100155.75;4992179;28;20094;-89
2021/09/14 04:05:38;;;;;;;17.67;9.40;;;;;;;19.10;72.99;100156.09;4992069;28;20031;-90
2021/09/14 04:10:37;;;;;;;20.58;9.55;;;;;;;19.14;72.88;100160.91;4992333;28;20053;-89
2021/09/14 04:13:03;;;;;;;20.67;10.07;;;;;;;19.17;72.51;100149.09;4992476;28;20059;-89
2021/09/14 04:15:28;;;;;;;18.00;10.05;;;;;;;19.15;72.54;100159.06;4991158;28;20030;-89
2021/09/14 04:17:53;;;;;;;16.90;9.57;;;;;;;19.17;72.18;100159.75;4992325;28;20033;-89
2021/09/14 04:20:19;;;;;;;18.10;8.55;;;;;;;19.17;72.09;100154.41;4991032;28;20026;-90
2021/09/14 04:22:44;;;;;;;14.90;8.63;;;;;;;19.13;72.55;100143.25;4991429;28;20031;-89
2021/09/14 04:25:10;;;;;;;15.45;7.95;;;;;;;18.99;73.33;100131.47;4992474;28;20061;-89
2021/09/14 04:27:35;;;;;;;17.52;9.65;;;;;;;18.97;73.52;100136.13;4992641;28;20019;-89
2021/09/14 04:30:01;;;;;;;17.35;9.18;;;;;;;18.96;73.51;100137.13;4992464;28;20045;-89
2021/09/14 04:32:26;;;;;;;15.18;8.77;;;;;;;19.00;73.42;100132.31;5011263;28;20484;-89
2021/09/14 04:34:51;;;;;;;11.95;9.00;;;;;;;18.86;73.97;100130.28;5014548;28;20026;-89
2021/09/14 04:37:17;;;;;;;14.90;8.93;;;;;;;18.86;73.29;100125.81;5015489;28;20029;-89
2021/09/14 04:39:42;;;;;;;15.43;9.82;;;;;;;18.94;73.54;100131.13;5015470;28;20076;-89
2021/09/14 04:42:08;;;;;;;13.38;9.27;;;;;;;19.01;73.16;100129.47;5015503;28;20040;-89
2021/09/14 04:44:33;;;;;;;18.73;9.95;;;;;;;18.95;73.81;100132.78;5013543;28;20424;-89
2021/09/14 04:46:58;;;;;;;14.20;9.98;;;;;;;18.71;74.13;100127.41;4979015;28;20038;-89
2021/09/14 04:49:24;;;;;;;18.98;9.68;;;;;;;18.96;73.76;100134.47;4976300;28;20023;-89
2021/09/14 04:51:49;;;;;;;15.07;9.55;;;;;;;18.98;73.86;100135.13;4976192;28;20115;-89
2021/09/14 04:54:14;;;;;;;19.88;9.60;;;;;;;19.01;73.11;100140.09;4975938;28;20030;-89
2021/09/14 04:56:40;;;;;;;16.90;10.13;;;;;;;19.07;72.96;100146.59;4976026;28;20027;-89
2021/09/14 04:59:05;;;;;;;18.77;10.32;;;;;;;18.80;74.13;100137.13;4976178;28;20441;-90
2021/09/14 05:01:30;;;;;;;15.32;9.15;;;;;;;19.06;73.06;100144.94;4998586;28;20500;-90
2021/09/14 05:03:56;;;;;;;16.92;9.68;;;;;;;19.01;73.69;100140.09;5014926;28;20481;-90
2021/09/14 05:06:21;;;;;;;20.27;9.93;;;;;;;19.07;73.29;100132.47;5014818;28;20018;-89
2021/09/14 05:08:46;;;;;;;11.70;8.73;;;;;;;18.99;73.38;100126.13;5014991;28;20034;-89
2021/09/14 05:11:13;;;;;;;17.63;10.35;;;;;;;18.95;73.28;100127.47;5013484;28;20060;-89
2021/09/14 05:13:39;;;;;;;16.48;8.90;;;;;;;19.03;73.51;100138.09;5014705;28;20026;-89
2021/09/14 05:16:05;;;;;;;20.60;10.80;;;;;;;19.01;73.91;100137.44;5014638;28;20025;-89
2021/09/14 05:18:30;;;;;;;17.13;9.93;;;;;;;19.03;73.73;100130.13;5014665;28;20408;-89
2021/09/14 05:20:57;;;;;;;17.70;10.45;;;;;;;18.79;74.61;100125.63;5014776;28;20527;-89
2021/09/14 05:23:32;;;;;;;17.45;9.55;;;;;;;18.93;74.36;100126.81;5014556;28;20037;-89
2021/09/14 05:26:03;;;;;;;17.05;10.13;;;;;;;18.94;73.62;100128.47;5014605;28;20076;-89
2021/09/14 05:28:29;;;;;;;20.38;10.68;;;;;;;18.91;74.39;100139.44;5014637;28;20521;-89
2021/09/14 05:30:55;;;;;;;19.77;10.43;;;;;;;18.93;73.84;100136.63;5004072;28;20073;-89
2021/09/14 05:33:20;;;;;;;19.50;10.50;;;;;;;19.02;73.49;100141.78;4994809;28;20109;-89
2021/09/14 05:35:49;;;;;;;20.40;10.55;;;;;;;19.07;73.42;100137.78;4994590;28;20057;-89
2021/09/14 05:38:16;;;;;;;18.00;10.32;;;;;;;19.08;73.58;100150.94;4994799;28;20453;-89
2021/09/14 05:40:42;;;;;;;13.82;9.52;;;;;;;19.06;73.64;100149.44;4994814;28;20034;-89
2021/09/14 05:43:08;;;;;;;18.98;10.85;;;;;;;19.07;73.71;100145.78;4994681;28;20034;-89
2021/09/14 05:45:33;;;;;;;20.85;11.93;;;;;;;19.02;74.13;100136.47;4994300;28;20034;-90
2021/09/14 05:47:59;;;;;;;25.77;10.93;;;;;;;19.11;74.08;100142.59;4994756;28;20062;-89
2021/09/14 05:50:25;;;;;;;18.90;10.77;;;;;;;19.07;73.95;100137.78;4994639;28;20026;-89
2021/09/14 05:52:50;;;;;;;24.70;11.82;;;;;;;19.12;73.40;100144.28;4994480;28;20448;-89
2021/09/14 05:55:16;;;;;;;24.48;11.98;;;;;;;19.06;73.91;100131.63;4994455;28;20030;-89
2021/09/14 05:57:41;;;;;;;25.13;12.23;;;;;;;19.05;74.02;100140.59;4994552;28;20023;-89
2021/09/14 06:00:07;;;;;;;18.58;12.27;;;;;;;19.12;73.66;100146.13;4996345;28;20058;-88
2021/09/14 06:02:33;;;;;;;21.70;11.50;;;;;;;19.18;74.03;100150.78;5016526;28;20132;-88
2021/09/14 06:04:58;;;;;;;22.02;12.63;;;;;;;19.09;74.06;100154.41;5014147;28;20038;-88
2021/09/14 06:07:24;;;;;;;22.30;11.27;;;;;;;19.15;73.96;100151.91;5013672;28;20481;-88
2021/09/14 06:09:49;;;;;;;27.30;13.02;;;;;;;19.10;74.46;100164.06;5013743;28;20032;-88
2021/09/14 06:12:15;;;;;;;25.95;13.38;;;;;;;19.05;74.70;100156.56;5013917;28;20022;-89
2021/09/14 06:14:40;;;;;;;24.63;13.07;;;;;;;19.02;75.41;100168.38;5013536;28;20109;-88
2021/09/14 06:17:05;;;;;;;26.25;13.57;;;;;;;19.11;75.43;100166.56;5014132;28;20026;-88
2021/09/14 06:19:31;;;;;;;26.30;12.85;;;;;;;19.15;75.21;100167.06;5013393;28;20029;-90
2021/09/14 06:21:56;;;;;;;23.02;13.63;;;;;;;19.16;74.66;100166.91;5013522;28;20199;-90
2021/09/14 06:24:21;;;;;;;23.90;11.40;;;;;;;19.13;75.08;100158.41;5013323;28;20096;-89
2021/09/14 06:26:47;;;;;;;30.35;13.45;;;;;;;19.08;75.51;100160.75;5013338;28;20425;-88
2021/09/14 06:29:13;;;;;;;29.33;13.55;;;;;;;19.07;75.78;100146.59;5013383;28;20060;-88
2021/09/14 06:31:38;;;;;;;26.38;13.60;;;;;;;19.06;75.80;100146.78;4996513;28;20092;-88
2021/09/14 06:34:03;;;;;;;21.50;12.40;;;;;;;19.06;75.81;100144.13;4994080;28;20022;-88
2021/09/14 06:36:29;;;;;;;25.02;13.45;;;;;;;19.11;76.09;100152.41;4993472;28;20027;-88
2021/09/14 06:38:54;;;;;;;22.83;12.93;;;;;;;19.10;75.75;100150.78;4993711;28;20077;-89
2021/09/14 06:41:21;;;;;;;21.73;12.55;;;;;;;19.16;75.47;100158.91;4993527;28;20026;-88
2021/09/14 06:43:46;;;;;;;21.08;11.95;;;;;;;18.98;76.07;100151.09;4993395;28;20428;-88
2021/09/14 06:46:12;;;;;;;21.45;11.25;;;;;;;19.11;75.26;100155.91;4993631;28;20022;-88
2021/09/14 06:48:37;;;;;;;21.30;11.70;;;;;;;19.23;74.90;100153.75;4993605;28;20539;-88
2021/09/14 06:51:03;;;;;;;23.15;11.68;;;;;;;19.24;75.25;100147.44;4993508;28;20093;-88
2021/09/14 06:53:29;;;;;;;22.58;11.90;;;;;;;19.20;75.02;100157.59;4994113;28;20026;-88
2021/09/14 06:55:55;;;;;;;23.35;12.43;;;;;;;19.10;75.30;100158.75;4991468;28;20023;-88
2021/09/14 06:58:21;;;;;;;22.02;11.52;;;;;;;19.24;75.40;100159.94;4993035;28;20034;-88
2021/09/14 07:00:46;;;;;;;20.35;12.10;;;;;;;19.21;75.73;100156.59;4992756;28;20038;-89
2021/09/14 07:03:11;;;;;;;23.23;12.35;;;;;;;19.19;76.48;100153.28;4992850;28;20039;-88
2021/09/14 07:05:38;;;;;;;20.70;11.77;;;;;;;19.22;76.53;100157.41;4992830;28;20030;-88
2021/09/14 07:08:04;;;;;;;18.73;10.68;;;;;;;19.34;75.94;100150.75;4993149;28;20030;-88
2021/09/14 07:10:29;;;;;;;18.27;10.55;;;;;;;19.26;76.27;100158.75;4992840;28;20041;-88
2021/09/14 07:12:55;;;;;;;18.80;10.98;;;;;;;19.28;75.78;100153.25;4993025;28;20057;-88
2021/09/14 07:15:20;;;;;;;17.10;10.52;;;;;;;19.30;75.98;100146.78;4993007;28;20292;-88
2021/09/14 07:17:46;;;;;;;19.38;11.10;;;;;;;19.28;76.56;100145.28;4993104;28;20031;-88
2021/09/14 07:20:11;;;;;;;18.88;10.38;;;;;;;19.24;76.65;100149.28;4992912;28;20054;-89
2021/09/14 07:22:37;;;;;;;16.83;9.18;;;;;;;19.23;77.18;100140.44;4991654;28;20030;-88
2021/09/14 07:25:03;;;;;;;16.10;10.00;;;;;;;19.32;77.14;100144.78;4992827;28;20034;-88
2021/09/14 07:27:28;;;;;;;17.77;9.77;;;;;;;19.34;77.37;100140.09;4992754;28;20030;-89
2021/09/14 07:29:53;;;;;;;13.88;8.52;;;;;;;19.36;76.82;100134.63;4996762;28;20084;-88
2021/09/14 07:32:19;;;;;;;15.20;9.80;;;;;;;19.41;76.76;100135.78;5012195;28;20026;-88
2021/09/14 07:34:44;;;;;;;13.85;9.05;;;;;;;19.46;76.83;100127.28;5012326;28;20076;-89
2021/09/14 07:37:10;;;;;;;14.07;9.77;;;;;;;19.47;76.92;100128.09;5012160;28;20042;-88
2021/09/14 07:39:35;;;;;;;13.77;9.00;;;;;;;19.55;76.48;100133.41;5011049;28;20018;-89
2021/09/14 07:42:00;;;;;;;14.82;9.63;;;;;;;19.58;76.68;100130.44;5012194;28;20021;-89
2021/09/14 07:44:26;;;;;;;19.13;10.93;;;;;;;19.59;76.47;100134.75;5012144;28;20472;-88
2021/09/14 07:46:52;;;;;;;15.48;9.77;;;;;;;19.64;76.47;100126.25;5012081;28;20476;-88
2021/09/14 07:49:17;;;;;;;17.45;9.57;;;;;;;19.58;75.85;100125.09;5012198;28;20030;-89
2021/09/14 07:51:43;;;;;;;18.90;9.63;;;;;;;19.67;75.91;100129.41;5012080;28;20068;-88
2021/09/14 07:54:08;;;;;;;14.95;8.98;;;;;;;19.65;75.56;100126.09;5012370;28;20109;-89
2021/09/14 07:56:33;;;;;;;13.13;9.35;;;;;;;19.61;75.68;100125.59;5010745;28;20026;-89
2021/09/14 07:58:59;;;;;;;15.27;10.20;;;;;;;19.37;76.43;100129.13;5012055;28;20026;-88
2021/09/14 08:01:24;;;;;;;18.00;9.73;;;;;;;19.49;76.41;100128.75;4994988;28;20034;-89
2021/09/14 08:03:50;;;;;;;16.45;10.13;;;;;;;19.55;76.60;100128.94;4992552;28;20056;-88
2021/09/14 08:06:15;;;;;;;15.38;10.68;;;;;;;19.65;76.17;100136.75;4994436;28;20034;-88
2021/09/14 08:08:41;;;;;;;21.17;10.43;;;;;;;19.67;75.94;100131.22;4994900;28;20057;-88
2021/09/14 08:11:06;;;;;;;17.83;11.07;;;;;;;19.70;76.05;100134.38;4996420;28;20027;-88
2021/09/14 08:13:32;;;;;;;17.05;10.60;;;;;;;19.58;76.50;100130.44;4996287;28;20034;-89
2021/09/14 08:15:57;;;;;;;19.52;12.63;;;;;;;19.55;76.25;100120.09;4996078;28;20027;-88
2021/09/14 08:18:22;;;;;;;20.52;12.07;;;;;;;19.53;76.93;100122.09;4996384;28;20499;-89
2021/09/14 08:20:48;;;;;;;15.68;10.95;;;;;;;19.64;76.46;100132.41;4996923;28;20030;-88
2021/09/14 08:23:13;;;;;;;16.95;11.27;;;;;;;19.71;75.99;100135.25;4995009;28;20031;-88
2021/09/14 08:25:38;;;;;;;20.83;11.80;;;;;;;19.76;75.91;100139.06;4996458;28;20027;-88
2021/09/14 08:28:04;;;;;;;18.13;11.80;;;;;;;19.68;76.91;100127.56;4996601;28;20108;-89
2021/09/14 08:30:30;;;;;;;16.85;11.38;;;;;;;19.79;76.16;100121.94;5004219;28;20109;-89
2021/09/14 08:32:55;;;;;;;19.65;11.85;;;;;;;19.90;76.05;100126.03;5013979;28;20104;-89
2021/09/14 08:35:21;;;;;;;13.82;10.32;;;;;;;20.01;75.46;100131.00;4998745;28;20468;-90
2021/09/14 08:37:46;;;;;;;21.17;12.65;;;;;;;20.07;75.44;100132.16;5015574;28;20017;-89
2021/09/14 08:40:12;;;;;;;18.58;11.93;;;;;;;19.87;76.65;100129.06;5004594;28;20109;-89
2021/09/14 08:42:38;;;;;;;22.13;11.82;;;;;;;20.09;76.22;100132.81;4995676;28;20508;-89
2021/09/14 08:45:05;;;;;;;17.50;11.43;;;;;;;20.19;75.79;100128.91;4995681;28;20037;-89
2021/09/14 08:47:31;;;;;;;17.55;10.25;;;;;;;20.23;75.47;100125.91;4997580;28;20116;-90
2021/09/14 08:49:56;;;;;;;12.48;10.00;;;;;;;20.19;75.41;100122.75;4995394;28;20141;-89
2021/09/14 08:52:22;;;;;;;15.05;10.93;;;;;;;20.13;74.62;100121.63;4995474;28;20523;-89
2021/09/14 08:54:47;;;;;;;17.17;11.75;;;;;;;20.16;74.96;100123.94;4995395;28;20018;-90
2021/09/14 08:57:14;;;;;;;17.40;12.23;;;;;;;20.09;75.33;100127.47;4995417;28;20037;-89
2021/09/14 08:59:46;;;;;;;16.23;12.00;;;;;;;20.23;75.83;100125.91;4995462;28;20073;-89
2021/09/14 09:02:12;;;;;;;17.90;12.60;;;;;;;20.41;74.94;100118.47;4994317;28;20485;-90
2021/09/14 09:04:37;;;;;;;15.98;11.75;;;;;;;20.54;74.86;100113.41;5011078;28;20064;-89
2021/09/14 09:07:03;;;;;;;22.05;14.68;;;;;;;20.67;74.17;100128.03;5014551;28;20060;-90
2021/09/14 09:09:30;;;;;;;20.80;15.05;;;;;;;20.67;74.36;100115.50;5008976;28;20096;-89
2021/09/14 09:11:59;;;;;;;20.05;14.57;;;;;;;20.77;75.29;100120.63;4995311;28;20112;-89
2021/09/14 09:14:51;;;;;;;36.00;23.23;;;;;;;20.76;74.59;100126.97;4995002;28;20025;-89
2021/09/14 09:17:18;;;;;;;27.08;18.42;;;;;;;20.58;74.78;100122.72;4993842;28;20120;-89
2021/09/14 09:20:06;;;;;;;81.80;55.40;;;;;;;20.87;73.22;100126.53;4994481;28;20496;-89
2021/09/14 09:22:32;;;;;;;91.28;60.50;;;;;;;21.05;73.00;100120.91;4994891;28;20397;-89
2021/09/14 09:24:58;;;;;;;55.58;38.00;;;;;;;20.90;72.99;100120.84;4993646;28;20536;-89
2021/09/14 09:27:26;;;;;;;58.70;36.05;;;;;;;21.06;72.12;100119.06;4994972;28;20108;-89
2021/09/14 09:30:07;;;;;;;50.70;30.73;;;;;;;21.15;72.54;100113.50;4994659;28;20275;-89
2021/09/14 09:32:46;;;;;;;39.47;28.10;;;;;;;21.16;72.63;100114.31;4994855;28;20062;-89
2021/09/14 09:35:13;;;;;;;17.40;14.45;;;;;;;21.19;71.63;100119.31;4994488;28;20090;-90
2021/09/14 09:37:38;;;;;;;33.80;23.42;;;;;;;21.28;70.97;100118.19;4994689;28;20026;-89
2021/09/14 09:40:05;;;;;;;31.50;20.77;;;;;;;21.10;71.89;100128.38;4994375;28;20384;-90
2021/09/14 09:42:31;;;;;;;22.50;16.08;;;;;;;21.23;71.91;100127.75;4994462;28;20026;-90
2021/09/14 09:44:58;;;;;;;17.65;12.27;;;;;;;21.23;71.86;100125.94;5003430;28;20026;-90
2021/09/14 09:47:24;;;;;;;16.25;12.60;;;;;;;21.20;71.89;100126.28;4994394;28;20022;-90
2021/09/14 09:49:50;;;;;;;17.00;12.13;;;;;;;21.24;72.26;100132.91;4992946;28;20113;-90
2021/09/14 09:52:17;;;;;;;15.90;11.75;;;;;;;21.09;73.01;100119.56;4995801;28;20030;-89
2021/09/14 09:54:45;;;;;;;14.85;11.80;;;;;;;21.25;73.10;100109.72;4994028;28;20031;-89
2021/09/14 09:57:10;;;;;;;14.88;11.43;;;;;;;21.33;73.47;100118.50;4974942;28;20033;-89
2021/09/14 09:59:36;;;;;;;15.43;11.45;;;;;;;21.33;73.33;100115.81;4987915;28;20034;-90
2021/09/14 10:02:22;;;;;;;13.75;11.13;;;;;;;21.43;72.92;100112.06;5004391;28;20033;-89
2021/09/14 10:04:54;;;;;;;14.48;10.80;;;;;;;21.41;73.10;100122.09;5006824;28;20122;-89
2021/09/14 10:07:26;;;;;;;14.00;10.77;;;;;;;21.37;72.61;100116.28;4993799;28;20031;-90
2021/09/14 10:09:53;;;;;;;12.88;9.55;;;;;;;21.46;72.87;100117.06;4994558;28;20027;-90
2021/09/14 10:12:32;;;;;;;12.25;9.80;;;;;;;21.53;72.79;100118.00;4993541;28;20362;-90
2021/09/14 10:15:05;;;;;;;11.82;9.20;;;;;;;21.62;71.90;100116.88;4986996;28;20057;-90
2021/09/14 10:17:32;;;;;;;12.02;9.05;;;;;;;21.49;71.94;100124.72;4993957;28;20046;-90
2021/09/14 10:20:09;;;;;;;13.63;11.00;;;;;;;21.43;73.36;100125.44;4994071;28;20117;-89
2021/09/14 10:22:34;;;;;;;12.07;10.15;;;;;;;21.52;72.10;100119.00;4996780;28;20045;-90
2021/09/14 10:25:02;;;;;;;8.40;7.00;;;;;;;21.64;71.62;100128.22;5013147;28;20026;-90
2021/09/14 10:27:38;;;;;;;9.18;7.55;;;;;;;21.62;71.04;100127.56;5003106;28;20054;-89
2021/09/14 10:30:06;;;;;;;12.95;9.43;;;;;;;21.63;70.15;100131.91;4993442;28;20482;-89
2021/09/14 10:32:44;;;;;;;18.52;13.13;;;;;;;21.69;70.55;100135.72;4992062;28;20443;-89
2021/09/14 10:35:11;;;;;;;9.20;7.68;;;;;;;21.68;70.34;100121.53;4993516;28;20035;-89
2021/09/14 10:37:38;;;;;;;12.38;9.40;;;;;;;21.70;70.65;100124.84;4993586;28;20038;-90
2021/09/14 10:40:13;;;;;;;11.57;8.65;;;;;;;21.79;70.83;100125.56;4993656;28;20029;-89
2021/09/14 10:42:47;;;;;;;19.17;12.75;;;;;;;21.69;69.64;100120.50;4993609;28;20074;-89
2021/09/14 10:45:13;;;;;;;21.10;13.20;;;;;;;21.78;69.68;100118.56;4993381;28;20022;-89
2021/09/14 10:47:41;;;;;;;14.13;9.25;;;;;;;21.74;69.74;100120.78;4993455;28;20110;-89
2021/09/14 10:50:09;;;;;;;15.45;10.38;;;;;;;21.56;70.52;100122.97;4993428;28;20033;-89
2021/09/14 10:52:42;;;;;;;15.98;11.43;;;;;;;21.63;69.99;100123.09;4992299;28;20488;-89
2021/09/14 10:55:09;;;;;;;15.93;9.90;;;;;;;21.60;70.22;100124.25;4992138;28;20065;-89
2021/09/14 10:57:42;;;;;;;11.20;7.00;;;;;;;21.67;70.15;100121.69;4993253;28;20054;-89
2021/09/14 11:00:10;;;;;;;6.63;5.82;;;;;;;21.67;70.09;100122.53;5003745;28;20052;-89
2021/09/14 11:02:38;;;;;;;8.15;6.07;;;;;;;21.60;70.36;100132.28;5012657;28;20038;-89
2021/09/14 11:05:04;;;;;;;13.63;8.27;;;;;;;21.60;69.97;100129.59;5012876;28;20054;-89
2021/09/14 11:07:30;;;;;;;13.90;8.55;;;;;;;21.59;70.43;100125.28;5012685;28;20022;-89
2021/09/14 11:09:57;;;;;;;35.65;19.48;;;;;;;21.77;69.61;100124.94;5011471;28;20045;-89
2021/09/14 11:12:25;;;;;;;29.02;17.58;;;;;;;21.75;70.28;100122.44;5012652;28;20354;-89
2021/09/14 11:14:52;;;;;;;12.45;9.07;;;;;;;21.95;69.78;100129.91;5012627;28;20479;-89
2021/09/14 11:17:28;;;;;;;13.43;10.63;;;;;;;21.98;68.84;100119.66;5012927;28;20018;-89
2021/09/14 11:19:54;;;;;;;11.00;8.50;;;;;;;22.10;69.69;100122.69;5012558;28;20017;-90
2021/09/14 11:22:34;;;;;;;15.80;10.68;;;;;;;22.02;69.44;100122.81;5012606;28;20025;-89
2021/09/14 11:25:00;;;;;;;14.88;8.18;;;;;;;22.18;68.71;100125.25;5012333;28;20046;-89
2021/09/14 11:27:26;;;;;;;8.30;6.82;;;;;;;22.30;69.22;100127.50;5012433;28;20098;-89
2021/09/14 11:29:51;;;;;;;6.43;5.47;;;;;;;22.45;69.07;100130.13;5001265;28;20108;-89
2021/09/14 11:32:17;;;;;;;6.35;5.40;;;;;;;22.48;67.82;100133.25;4993446;28;20032;-89
2021/09/14 11:34:43;;;;;;;7.38;5.70;;;;;;;22.38;69.03;100124.72;4992585;28;20023;-89
2021/09/14 11:37:08;;;;;;;6.05;5.32;;;;;;;22.43;68.65;100127.63;4992530;28;20034;-89
2021/09/14 11:39:38;;;;;;;7.75;5.10;;;;;;;22.47;67.96;100128.94;4992666;28;20480;-89
2021/09/14 11:42:07;;;;;;;7.45;5.90;;;;;;;22.48;68.12;100135.09;4992367;28;20053;-90
2021/09/14 11:44:33;;;;;;;8.13;5.50;;;;;;;22.40;68.25;100135.22;4992514;28;20555;-89
2021/09/14 11:47:08;;;;;;;8.43;5.80;;;;;;;22.48;67.34;100141.28;4992438;28;20022;-89
2021/09/14 11:49:33;;;;;;;8.80;7.43;;;;;;;22.38;67.89;100132.72;4992159;28;20065;-89
2021/09/14 11:52:04;;;;;;;6.15;5.35;;;;;;;22.44;67.80;100137.31;4992188;28;20061;-89
2021/09/14 11:54:35;;;;;;;4.80;4.40;;;;;;;22.55;67.94;100141.34;4992704;28;20101;-89
2021/09/14 11:57:02;;;;;;;7.07;4.50;;;;;;;22.47;66.72;100134.28;4991684;28;20037;-90
2021/09/14 11:59:32;;;;;;;5.20;4.70;;;;;;;22.46;67.75;100137.16;4993871;28;20049;-89
2021/09/14 12:01:58;;;;;;;6.22;4.80;;;;;;;22.58;67.36;100139.13;4991454;28;20539;-90